sensor_id;sensor_type;location;lat;lon;timestamp;pressure;altitude;pressure_sealevel;temperature
20289;BMP180;10303;51.960;8.372;2022-11-20T00:01:14;100134.00;;;-0.90
20289;BMP180;10303;51.960;8.372;2022-11-20T00:03:41;100121.00;;;-0.90
20289;BMP180;10303;51.960;8.372;2022-11-20T00:06:11;100122.00;;;-0.90
20289;BMP180;10303;51.960;8.372;2022-11-20T00:08:38;100127.00;;;-0.90
20289;BMP180;10303;51.960;8.372;2022-11-20T00:11:20;100106.00;;;-0.90
20289;BMP180;10303;51.960;8.372;2022-11-20T00:13:49;100101.00;;;-0.90
20289;BMP180;10303;51.960;8.372;2022-11-20T00:16:19;100115.00;;;-1.00
20289;BMP180;10303;51.960;8.372;2022-11-20T00:18:45;100101.00;;;-1.00
20289;BMP180;10303;51.960;8.372;2022-11-20T00:21:16;100110.00;;;-1.00
20289;BMP180;10303;51.960;8.372;2022-11-20T00:23:43;100097.00;;;-1.00
20289;BMP180;10303;51.960;8.372;2022-11-20T00:26:13;100094.00;;;-1.00
20289;BMP180;10303;51.960;8.372;2022-11-20T00:28:41;100094.00;;;-1.10
20289;BMP180;10303;51.960;8.372;2022-11-20T00:31:12;100090.00;;;-1.10
20289;BMP180;10303;51.960;8.372;2022-11-20T00:33:39;100100.00;;;-1.10
20289;BMP180;10303;51.960;8.372;2022-11-20T00:36:12;100106.00;;;-1.10
20289;BMP180;10303;51.960;8.372;2022-11-20T00:38:38;100112.00;;;-1.10
20289;BMP180;10303;51.960;8.372;2022-11-20T00:41:08;100096.00;;;-1.10
20289;BMP180;10303;51.960;8.372;2022-11-20T00:43:37;100105.00;;;-1.20
20289;BMP180;10303;51.960;8.372;2022-11-20T00:46:16;100108.00;;;-1.20
20289;BMP180;10303;51.960;8.372;2022-11-20T00:48:43;100102.00;;;-1.20
20289;BMP180;10303;51.960;8.372;2022-11-20T00:51:15;100106.00;;;-1.20
20289;BMP180;10303;51.960;8.372;2022-11-20T00:53:41;100110.00;;;-1.20
20289;BMP180;10303;51.960;8.372;2022-11-20T00:56:11;100118.00;;;-1.20
20289;BMP180;10303;51.960;8.372;2022-11-20T00:58:41;100114.00;;;-1.20
20289;BMP180;10303;51.960;8.372;2022-11-20T01:01:12;100105.00;;;-1.30
20289;BMP180;10303;51.960;8.372;2022-11-20T01:03:50;100089.00;;;-1.30
20289;BMP180;10303;51.960;8.372;2022-11-20T01:06:27;100102.00;;;-1.30
20289;BMP180;10303;51.960;8.372;2022-11-20T01:08:57;100105.00;;;-1.30
20289;BMP180;10303;51.960;8.372;2022-11-20T01:11:29;100108.00;;;-1.40
20289;BMP180;10303;51.960;8.372;2022-11-20T01:13:57;100113.00;;;-1.40
20289;BMP180;10303;51.960;8.372;2022-11-20T01:16:39;100110.00;;;-1.40
20289;BMP180;10303;51.960;8.372;2022-11-20T01:19:09;100115.00;;;-1.40
20289;BMP180;10303;51.960;8.372;2022-11-20T01:21:39;100096.00;;;-1.50
20289;BMP180;10303;51.960;8.372;2022-11-20T01:24:08;100115.00;;;-1.50
20289;BMP180;10303;51.960;8.372;2022-11-20T01:26:38;100112.00;;;-1.50
20289;BMP180;10303;51.960;8.372;2022-11-20T01:29:06;100105.00;;;-1.50
20289;BMP180;10303;51.960;8.372;2022-11-20T01:31:36;100107.00;;;-1.50
20289;BMP180;10303;51.960;8.372;2022-11-20T01:34:07;100114.00;;;-1.50
20289;BMP180;10303;51.960;8.372;2022-11-20T01:36:35;100110.00;;;-1.60
20289;BMP180;10303;51.960;8.372;2022-11-20T01:39:11;100109.00;;;-1.60
20289;BMP180;10303;51.960;8.372;2022-11-20T01:41:37;100113.00;;;-1.60
20289;BMP180;10303;51.960;8.372;2022-11-20T01:47:40;100089.00;;;-1.70
20289;BMP180;10303;51.960;8.372;2022-11-20T01:50:22;100086.00;;;-1.70
20289;BMP180;10303;51.960;8.372;2022-11-20T01:53:03;100087.00;;;-1.70
20289;BMP180;10303;51.960;8.372;2022-11-20T01:55:36;100095.00;;;-1.70
20289;BMP180;10303;51.960;8.372;2022-11-20T01:58:04;100088.00;;;-1.70
20289;BMP180;10303;51.960;8.372;2022-11-20T02:00:31;100105.00;;;-1.70
20289;BMP180;10303;51.960;8.372;2022-11-20T02:03:03;100102.00;;;-1.70
20289;BMP180;10303;51.960;8.372;2022-11-20T02:08:23;100091.00;;;-1.80
20289;BMP180;10303;51.960;8.372;2022-11-20T02:10:49;100096.00;;;-1.80
20289;BMP180;10303;51.960;8.372;2022-11-20T02:13:16;100090.00;;;-1.80
20289;BMP180;10303;51.960;8.372;2022-11-20T02:16:01;100089.00;;;-1.80
20289;BMP180;10303;51.960;8.372;2022-11-20T02:18:29;100086.00;;;-1.90
20289;BMP180;10303;51.960;8.372;2022-11-20T02:21:11;100089.00;;;-1.90
20289;BMP180;10303;51.960;8.372;2022-11-20T02:26:23;100075.00;;;-1.90
20289;BMP180;10303;51.960;8.372;2022-11-20T02:28:50;100067.00;;;-1.90
20289;BMP180;10303;51.960;8.372;2022-11-20T02:31:17;100064.00;;;-2.00
20289;BMP180;10303;51.960;8.372;2022-11-20T02:33:43;100066.00;;;-2.00
20289;BMP180;10303;51.960;8.372;2022-11-20T02:36:14;100068.00;;;-2.00
20289;BMP180;10303;51.960;8.372;2022-11-20T02:38:42;100063.00;;;-2.00
20289;BMP180;10303;51.960;8.372;2022-11-20T02:41:08;100070.00;;;-2.00
20289;BMP180;10303;51.960;8.372;2022-11-20T02:43:34;100060.00;;;-2.00
20289;BMP180;10303;51.960;8.372;2022-11-20T02:46:00;100058.00;;;-2.00
20289;BMP180;10303;51.960;8.372;2022-11-20T02:48:26;100052.00;;;-2.00
20289;BMP180;10303;51.960;8.372;2022-11-20T02:50:52;100047.00;;;-2.00
20289;BMP180;10303;51.960;8.372;2022-11-20T02:53:18;100040.00;;;-2.00
20289;BMP180;10303;51.960;8.372;2022-11-20T02:55:45;100039.00;;;-2.00
20289;BMP180;10303;51.960;8.372;2022-11-20T02:58:11;100030.00;;;-2.00
20289;BMP180;10303;51.960;8.372;2022-11-20T03:00:37;100030.00;;;-2.10
20289;BMP180;10303;51.960;8.372;2022-11-20T03:03:03;100024.00;;;-2.10
20289;BMP180;10303;51.960;8.372;2022-11-20T03:05:29;100035.00;;;-2.10
20289;BMP180;10303;51.960;8.372;2022-11-20T03:07:54;100036.00;;;-2.10
20289;BMP180;10303;51.960;8.372;2022-11-20T03:10:20;100034.00;;;-2.10
20289;BMP180;10303;51.960;8.372;2022-11-20T03:12:46;100033.00;;;-2.10
20289;BMP180;10303;51.960;8.372;2022-11-20T03:15:13;100030.00;;;-2.20
20289;BMP180;10303;51.960;8.372;2022-11-20T03:17:39;100034.00;;;-2.20
20289;BMP180;10303;51.960;8.372;2022-11-20T03:20:06;100030.00;;;-2.20
20289;BMP180;10303;51.960;8.372;2022-11-20T03:22:32;100027.00;;;-2.20
20289;BMP180;10303;51.960;8.372;2022-11-20T03:24:58;100030.00;;;-2.20
20289;BMP180;10303;51.960;8.372;2022-11-20T03:27:24;100038.00;;;-2.20
20289;BMP180;10303;51.960;8.372;2022-11-20T03:29:50;100038.00;;;-2.30
20289;BMP180;10303;51.960;8.372;2022-11-20T03:32:16;100028.00;;;-2.30
20289;BMP180;10303;51.960;8.372;2022-11-20T03:34:42;100036.00;;;-2.30
20289;BMP180;10303;51.960;8.372;2022-11-20T03:37:08;100039.00;;;-2.30
20289;BMP180;10303;51.960;8.372;2022-11-20T03:39:34;100033.00;;;-2.30
20289;BMP180;10303;51.960;8.372;2022-11-20T03:42:00;100029.00;;;-2.30
20289;BMP180;10303;51.960;8.372;2022-11-20T03:44:26;100024.00;;;-2.40
20289;BMP180;10303;51.960;8.372;2022-11-20T03:46:52;100022.00;;;-2.40
20289;BMP180;10303;51.960;8.372;2022-11-20T03:49:18;100028.00;;;-2.40
20289;BMP180;10303;51.960;8.372;2022-11-20T03:51:44;100026.00;;;-2.40
20289;BMP180;10303;51.960;8.372;2022-11-20T03:54:10;100021.00;;;-2.40
20289;BMP180;10303;51.960;8.372;2022-11-20T03:56:38;100027.00;;;-2.50
20289;BMP180;10303;51.960;8.372;2022-11-20T03:59:05;100022.00;;;-2.50
20289;BMP180;10303;51.960;8.372;2022-11-20T04:01:35;100027.00;;;-2.50
20289;BMP180;10303;51.960;8.372;2022-11-20T04:04:02;100023.00;;;-2.50
20289;BMP180;10303;51.960;8.372;2022-11-20T04:06:34;100024.00;;;-2.50
20289;BMP180;10303;51.960;8.372;2022-11-20T04:09:00;100023.00;;;-2.50
20289;BMP180;10303;51.960;8.372;2022-11-20T04:11:33;100026.00;;;-2.60
20289;BMP180;10303;51.960;8.372;2022-11-20T04:14:05;100024.00;;;-2.60
20289;BMP180;10303;51.960;8.372;2022-11-20T04:16:35;100026.00;;;-2.60
20289;BMP180;10303;51.960;8.372;2022-11-20T04:19:04;100034.00;;;-2.60
20289;BMP180;10303;51.960;8.372;2022-11-20T04:21:32;100019.00;;;-2.60
20289;BMP180;10303;51.960;8.372;2022-11-20T04:23:59;100021.00;;;-2.60
20289;BMP180;10303;51.960;8.372;2022-11-20T04:26:27;100023.00;;;-2.70
20289;BMP180;10303;51.960;8.372;2022-11-20T04:28:54;100016.00;;;-2.70
20289;BMP180;10303;51.960;8.372;2022-11-20T04:31:27;100018.00;;;-2.70
20289;BMP180;10303;51.960;8.372;2022-11-20T04:33:53;100023.00;;;-2.70
20289;BMP180;10303;51.960;8.372;2022-11-20T04:36:23;100027.00;;;-2.70
20289;BMP180;10303;51.960;8.372;2022-11-20T04:38:55;100027.00;;;-2.70
20289;BMP180;10303;51.960;8.372;2022-11-20T04:41:25;100018.00;;;-2.80
20289;BMP180;10303;51.960;8.372;2022-11-20T04:43:58;100022.00;;;-2.80
20289;BMP180;10303;51.960;8.372;2022-11-20T04:46:29;100014.00;;;-2.80
20289;BMP180;10303;51.960;8.372;2022-11-20T04:48:56;100015.00;;;-2.80
20289;BMP180;10303;51.960;8.372;2022-11-20T04:51:22;100016.00;;;-2.80
20289;BMP180;10303;51.960;8.372;2022-11-20T04:53:48;100013.00;;;-2.90
20289;BMP180;10303;51.960;8.372;2022-11-20T04:56:15;100018.00;;;-2.90
20289;BMP180;10303;51.960;8.372;2022-11-20T04:58:41;100013.00;;;-2.90
20289;BMP180;10303;51.960;8.372;2022-11-20T05:03:42;100022.00;;;-2.90
20289;BMP180;10303;51.960;8.372;2022-11-20T05:06:13;100007.00;;;-2.90
20289;BMP180;10303;51.960;8.372;2022-11-20T05:08:40;100016.00;;;-2.90
20289;BMP180;10303;51.960;8.372;2022-11-20T05:11:14;100013.00;;;-3.00
20289;BMP180;10303;51.960;8.372;2022-11-20T05:13:41;100009.00;;;-2.90
20289;BMP180;10303;51.960;8.372;2022-11-20T05:16:10;100016.00;;;-2.90
20289;BMP180;10303;51.960;8.372;2022-11-20T05:18:37;100034.00;;;-3.00
20289;BMP180;10303;51.960;8.372;2022-11-20T05:21:05;100022.00;;;-2.90
20289;BMP180;10303;51.960;8.372;2022-11-20T05:23:32;100016.00;;;-3.00
20289;BMP180;10303;51.960;8.372;2022-11-20T05:25:59;100009.00;;;-3.00
20289;BMP180;10303;51.960;8.372;2022-11-20T05:28:26;100013.00;;;-3.00
20289;BMP180;10303;51.960;8.372;2022-11-20T05:30:53;100003.00;;;-3.00
20289;BMP180;10303;51.960;8.372;2022-11-20T05:33:19;100016.00;;;-3.00
20289;BMP180;10303;51.960;8.372;2022-11-20T05:35:45;100013.00;;;-3.00
20289;BMP180;10303;51.960;8.372;2022-11-20T05:38:11;100005.00;;;-3.00
20289;BMP180;10303;51.960;8.372;2022-11-20T05:40:37;100002.00;;;-3.10
20289;BMP180;10303;51.960;8.372;2022-11-20T05:43:03;100005.00;;;-3.10
20289;BMP180;10303;51.960;8.372;2022-11-20T05:45:29;99998.00;;;-3.10
20289;BMP180;10303;51.960;8.372;2022-11-20T05:47:59;100005.00;;;-3.10
20289;BMP180;10303;51.960;8.372;2022-11-20T05:50:28;99999.00;;;-3.10
20289;BMP180;10303;51.960;8.372;2022-11-20T05:52:54;100005.00;;;-3.10
20289;BMP180;10303;51.960;8.372;2022-11-20T05:55:20;100005.00;;;-3.10
20289;BMP180;10303;51.960;8.372;2022-11-20T05:57:46;100000.00;;;-3.10
20289;BMP180;10303;51.960;8.372;2022-11-20T06:00:13;100007.00;;;-3.10
20289;BMP180;10303;51.960;8.372;2022-11-20T06:02:39;99993.00;;;-3.20
20289;BMP180;10303;51.960;8.372;2022-11-20T06:05:05;100000.00;;;-3.20
20289;BMP180;10303;51.960;8.372;2022-11-20T06:07:31;99998.00;;;-3.20
20289;BMP180;10303;51.960;8.372;2022-11-20T06:09:57;100005.00;;;-3.20
20289;BMP180;10303;51.960;8.372;2022-11-20T06:12:23;100007.00;;;-3.20
20289;BMP180;10303;51.960;8.372;2022-11-20T06:14:49;99996.00;;;-3.20
20289;BMP180;10303;51.960;8.372;2022-11-20T06:17:15;99991.00;;;-3.20
20289;BMP180;10303;51.960;8.372;2022-11-20T06:19:41;99989.00;;;-3.20
20289;BMP180;10303;51.960;8.372;2022-11-20T06:22:07;100006.00;;;-3.20
20289;BMP180;10303;51.960;8.372;2022-11-20T06:24:33;100003.00;;;-3.20
20289;BMP180;10303;51.960;8.372;2022-11-20T06:26:58;100008.00;;;-3.20
20289;BMP180;10303;51.960;8.372;2022-11-20T06:29:24;100014.00;;;-3.20
20289;BMP180;10303;51.960;8.372;2022-11-20T06:31:50;99999.00;;;-3.20
20289;BMP180;10303;51.960;8.372;2022-11-20T06:34:16;100007.00;;;-3.20
20289;BMP180;10303;51.960;8.372;2022-11-20T06:36:42;100004.00;;;-3.20
20289;BMP180;10303;51.960;8.372;2022-11-20T06:39:08;100006.00;;;-3.20
20289;BMP180;10303;51.960;8.372;2022-11-20T06:41:34;100005.00;;;-3.20
20289;BMP180;10303;51.960;8.372;2022-11-20T06:44:00;100008.00;;;-3.20
20289;BMP180;10303;51.960;8.372;2022-11-20T06:46:26;100003.00;;;-3.20
20289;BMP180;10303;51.960;8.372;2022-11-20T06:48:52;100000.00;;;-3.20
20289;BMP180;10303;51.960;8.372;2022-11-20T06:51:18;99993.00;;;-3.20
20289;BMP180;10303;51.960;8.372;2022-11-20T06:53:44;99997.00;;;-3.20
20289;BMP180;10303;51.960;8.372;2022-11-20T06:56:11;100007.00;;;-3.10
20289;BMP180;10303;51.960;8.372;2022-11-20T06:58:37;100004.00;;;-3.00
20289;BMP180;10303;51.960;8.372;2022-11-20T07:01:13;100013.00;;;-3.00
20289;BMP180;10303;51.960;8.372;2022-11-20T07:03:40;100014.00;;;-2.90
20289;BMP180;10303;51.960;8.372;2022-11-20T07:06:07;100015.00;;;-2.90
20289;BMP180;10303;51.960;8.372;2022-11-20T07:08:34;100011.00;;;-2.80
20289;BMP180;10303;51.960;8.372;2022-11-20T07:11:03;100025.00;;;-2.70
20289;BMP180;10303;51.960;8.372;2022-11-20T07:13:31;100024.00;;;-2.70
20289;BMP180;10303;51.960;8.372;2022-11-20T07:16:02;100034.00;;;-2.60
20289;BMP180;10303;51.960;8.372;2022-11-20T07:18:28;100029.00;;;-2.50
20289;BMP180;10303;51.960;8.372;2022-11-20T07:20:55;100038.00;;;-2.50
20289;BMP180;10303;51.960;8.372;2022-11-20T07:23:21;100043.00;;;-2.40
20289;BMP180;10303;51.960;8.372;2022-11-20T07:25:47;100032.00;;;-2.40
20289;BMP180;10303;51.960;8.372;2022-11-20T07:28:13;100043.00;;;-2.30
20289;BMP180;10303;51.960;8.372;2022-11-20T07:30:39;100050.00;;;-2.20
20289;BMP180;10303;51.960;8.372;2022-11-20T07:33:05;100040.00;;;-2.10
20289;BMP180;10303;51.960;8.372;2022-11-20T07:35:31;100034.00;;;-2.10
20289;BMP180;10303;51.960;8.372;2022-11-20T07:37:58;100039.00;;;-2.10
20289;BMP180;10303;51.960;8.372;2022-11-20T07:40:24;100047.00;;;-2.00
20289;BMP180;10303;51.960;8.372;2022-11-20T07:42:52;100044.00;;;-1.90
20289;BMP180;10303;51.960;8.372;2022-11-20T07:45:20;100045.00;;;-1.80
20289;BMP180;10303;51.960;8.372;2022-11-20T07:47:46;100038.00;;;-1.80
20289;BMP180;10303;51.960;8.372;2022-11-20T07:50:15;100043.00;;;-1.70
20289;BMP180;10303;51.960;8.372;2022-11-20T07:52:42;100040.00;;;-1.60
20289;BMP180;10303;51.960;8.372;2022-11-20T07:55:09;100040.00;;;-1.60
20289;BMP180;10303;51.960;8.372;2022-11-20T07:57:36;100031.00;;;-1.50
20289;BMP180;10303;51.960;8.372;2022-11-20T08:00:08;100049.00;;;-1.40
20289;BMP180;10303;51.960;8.372;2022-11-20T08:02:41;100051.00;;;-1.30
20289;BMP180;10303;51.960;8.372;2022-11-20T08:05:09;100059.00;;;-1.30
20289;BMP180;10303;51.960;8.372;2022-11-20T08:07:41;100041.00;;;-1.20
20289;BMP180;10303;51.960;8.372;2022-11-20T08:10:11;100031.00;;;-1.10
20289;BMP180;10303;51.960;8.372;2022-11-20T08:12:50;100043.00;;;-1.10
20289;BMP180;10303;51.960;8.372;2022-11-20T08:15:37;100037.00;;;-1.00
20289;BMP180;10303;51.960;8.372;2022-11-20T08:18:10;100029.00;;;-0.90
20289;BMP180;10303;51.960;8.372;2022-11-20T08:20:40;100040.00;;;-0.80
20289;BMP180;10303;51.960;8.372;2022-11-20T08:23:07;100032.00;;;-0.80
20289;BMP180;10303;51.960;8.372;2022-11-20T08:25:36;100040.00;;;-0.70
20289;BMP180;10303;51.960;8.372;2022-11-20T08:28:06;100018.00;;;-0.60
20289;BMP180;10303;51.960;8.372;2022-11-20T08:30:34;100023.00;;;-0.50
20289;BMP180;10303;51.960;8.372;2022-11-20T08:33:06;100029.00;;;-0.40
20289;BMP180;10303;51.960;8.372;2022-11-20T08:35:38;100037.00;;;-0.30
20289;BMP180;10303;51.960;8.372;2022-11-20T08:38:05;100028.00;;;-0.20
20289;BMP180;10303;51.960;8.372;2022-11-20T08:40:33;100029.00;;;-0.10
20289;BMP180;10303;51.960;8.372;2022-11-20T08:42:59;100035.00;;;0.00
20289;BMP180;10303;51.960;8.372;2022-11-20T08:45:26;100037.00;;;0.10
20289;BMP180;10303;51.960;8.372;2022-11-20T08:47:52;100028.00;;;0.20
20289;BMP180;10303;51.960;8.372;2022-11-20T08:50:18;100026.00;;;0.30
20289;BMP180;10303;51.960;8.372;2022-11-20T08:52:44;100024.00;;;0.50
20289;BMP180;10303;51.960;8.372;2022-11-20T08:55:11;100033.00;;;0.80
20289;BMP180;10303;51.960;8.372;2022-11-20T08:57:38;100036.00;;;1.20
20289;BMP180;10303;51.960;8.372;2022-11-20T09:00:07;100026.00;;;1.80
20289;BMP180;10303;51.960;8.372;2022-11-20T09:02:33;100039.00;;;2.30
20289;BMP180;10303;51.960;8.372;2022-11-20T09:05:00;100033.00;;;2.70
20289;BMP180;10303;51.960;8.372;2022-11-20T09:07:28;100023.00;;;3.00
20289;BMP180;10303;51.960;8.372;2022-11-20T09:09:54;100030.00;;;3.40
20289;BMP180;10303;51.960;8.372;2022-11-20T09:12:20;100029.00;;;3.90
20289;BMP180;10303;51.960;8.372;2022-11-20T09:14:46;100032.00;;;4.40
20289;BMP180;10303;51.960;8.372;2022-11-20T09:17:12;100035.00;;;4.70
20289;BMP180;10303;51.960;8.372;2022-11-20T09:19:40;100027.00;;;5.00
20289;BMP180;10303;51.960;8.372;2022-11-20T09:22:07;100028.00;;;5.20
20289;BMP180;10303;51.960;8.372;2022-11-20T09:24:33;100035.00;;;5.30
20289;BMP180;10303;51.960;8.372;2022-11-20T09:27:03;100031.00;;;5.40
20289;BMP180;10303;51.960;8.372;2022-11-20T09:29:29;100036.00;;;5.50
20289;BMP180;10303;51.960;8.372;2022-11-20T09:31:55;100031.00;;;5.60
20289;BMP180;10303;51.960;8.372;2022-11-20T09:34:21;100032.00;;;5.70
20289;BMP180;10303;51.960;8.372;2022-11-20T09:36:51;100022.00;;;5.70
20289;BMP180;10303;51.960;8.372;2022-11-20T10:04:18;100005.00;;;6.70
20289;BMP180;10303;51.960;8.372;2022-11-20T10:07:30;100010.00;;;6.70
20289;BMP180;10303;51.960;8.372;2022-11-20T10:10:01;100001.00;;;6.70
20289;BMP180;10303;51.960;8.372;2022-11-20T10:29:46;100002.00;;;7.70
20289;BMP180;10303;51.960;8.372;2022-11-20T10:32:23;99991.00;;;8.00
20289;BMP180;10303;51.960;8.372;2022-11-20T10:34:59;99985.00;;;8.50
20289;BMP180;10303;51.960;8.372;2022-11-20T10:37:31;99989.00;;;8.80
20289;BMP180;10303;51.960;8.372;2022-11-20T10:43:02;99975.00;;;9.30
20289;BMP180;10303;51.960;8.372;2022-11-20T10:46:04;99980.00;;;9.70
20289;BMP180;10303;51.960;8.372;2022-11-20T10:48:34;99977.00;;;9.90
20289;BMP180;10303;51.960;8.372;2022-11-20T10:51:39;99960.00;;;10.30
20289;BMP180;10303;51.960;8.372;2022-11-20T10:56:56;99945.00;;;10.70
20289;BMP180;10303;51.960;8.372;2022-11-20T11:02:24;99964.00;;;11.20
20289;BMP180;10303;51.960;8.372;2022-11-20T11:04:54;99957.00;;;11.50
20289;BMP180;10303;51.960;8.372;2022-11-20T11:07:35;99935.00;;;11.80
20289;BMP180;10303;51.960;8.372;2022-11-20T11:10:22;99940.00;;;12.10
20289;BMP180;10303;51.960;8.372;2022-11-20T11:12:50;99948.00;;;12.30
20289;BMP180;10303;51.960;8.372;2022-11-20T11:15:38;99941.00;;;12.60
20289;BMP180;10303;51.960;8.372;2022-11-20T11:18:05;99943.00;;;12.90
20289;BMP180;10303;51.960;8.372;2022-11-20T11:20:34;99942.00;;;13.10
20289;BMP180;10303;51.960;8.372;2022-11-20T11:23:00;99938.00;;;13.30
20289;BMP180;10303;51.960;8.372;2022-11-20T11:27:59;99929.00;;;13.70
20289;BMP180;10303;51.960;8.372;2022-11-20T11:30:28;99931.00;;;13.80
20289;BMP180;10303;51.960;8.372;2022-11-20T11:33:12;99940.00;;;14.10
20289;BMP180;10303;51.960;8.372;2022-11-20T11:35:51;99931.00;;;14.20
20289;BMP180;10303;51.960;8.372;2022-11-20T11:38:36;99923.00;;;14.40
20289;BMP180;10303;51.960;8.372;2022-11-20T11:41:06;99926.00;;;14.40
20289;BMP180;10303;51.960;8.372;2022-11-20T11:43:37;99908.00;;;14.40
20289;BMP180;10303;51.960;8.372;2022-11-20T11:46:32;99919.00;;;14.30
20289;BMP180;10303;51.960;8.372;2022-11-20T11:49:14;99906.00;;;14.30
20289;BMP180;10303;51.960;8.372;2022-11-20T11:52:13;99902.00;;;14.20
20289;BMP180;10303;51.960;8.372;2022-11-20T11:54:55;99910.00;;;14.20
20289;BMP180;10303;51.960;8.372;2022-11-20T12:00:20;99918.00;;;14.10
20289;BMP180;10303;51.960;8.372;2022-11-20T12:05:43;99916.00;;;13.90
20289;BMP180;10303;51.960;8.372;2022-11-20T12:08:23;99917.00;;;14.00
20289;BMP180;10303;51.960;8.372;2022-11-20T12:11:38;99904.00;;;13.80
20289;BMP180;10303;51.960;8.372;2022-11-20T12:16:53;99903.00;;;13.30
20289;BMP180;10303;51.960;8.372;2022-11-20T12:19:21;99896.00;;;13.10
20289;BMP180;10303;51.960;8.372;2022-11-20T12:25:00;99898.00;;;13.00
20289;BMP180;10303;51.960;8.372;2022-11-20T12:30:48;99891.00;;;13.30
20289;BMP180;10303;51.960;8.372;2022-11-20T12:36:56;99893.00;;;13.50
20289;BMP180;10303;51.960;8.372;2022-11-20T12:39:41;99883.00;;;13.30
20289;BMP180;10303;51.960;8.372;2022-11-20T12:42:48;99876.00;;;12.90
20289;BMP180;10303;51.960;8.372;2022-11-20T12:46:02;99885.00;;;12.50
20289;BMP180;10303;51.960;8.372;2022-11-20T12:48:41;99885.00;;;12.20
20289;BMP180;10303;51.960;8.372;2022-11-20T13:00:22;99850.00;;;11.00
20289;BMP180;10303;51.960;8.372;2022-11-20T13:08:39;99851.00;;;11.20
20289;BMP180;10303;51.960;8.372;2022-11-20T13:11:40;99840.00;;;11.20
20289;BMP180;10303;51.960;8.372;2022-11-20T13:19:39;99837.00;;;11.40
20289;BMP180;10303;51.960;8.372;2022-11-20T13:22:08;99837.00;;;11.30
20289;BMP180;10303;51.960;8.372;2022-11-20T13:24:35;99844.00;;;11.20
20289;BMP180;10303;51.960;8.372;2022-11-20T13:27:17;99839.00;;;11.20
20289;BMP180;10303;51.960;8.372;2022-11-20T13:29:57;99841.00;;;11.00
20289;BMP180;10303;51.960;8.372;2022-11-20T13:32:24;99836.00;;;10.90
20289;BMP180;10303;51.960;8.372;2022-11-20T13:35:04;99838.00;;;10.70
20289;BMP180;10303;51.960;8.372;2022-11-20T13:37:34;99827.00;;;10.60
20289;BMP180;10303;51.960;8.372;2022-11-20T13:45:33;99793.00;;;10.10
20289;BMP180;10303;51.960;8.372;2022-11-20T13:48:16;99793.00;;;9.90
20289;BMP180;10303;51.960;8.372;2022-11-20T13:59:57;99776.00;;;9.40
20289;BMP180;10303;51.960;8.372;2022-11-20T14:02:27;99763.00;;;9.40
20289;BMP180;10303;51.960;8.372;2022-11-20T14:04:59;99750.00;;;9.30
20289;BMP180;10303;51.960;8.372;2022-11-20T14:07:41;99766.00;;;9.30
20289;BMP180;10303;51.960;8.372;2022-11-20T14:10:40;99761.00;;;9.20
20289;BMP180;10303;51.960;8.372;2022-11-20T14:13:19;99738.00;;;9.10
20289;BMP180;10303;51.960;8.372;2022-11-20T14:15:46;99746.00;;;9.10
20289;BMP180;10303;51.960;8.372;2022-11-20T14:18:20;99733.00;;;9.00
20289;BMP180;10303;51.960;8.372;2022-11-20T14:20:48;99730.00;;;8.90
20289;BMP180;10303;51.960;8.372;2022-11-20T14:23:27;99735.00;;;8.80
20289;BMP180;10303;51.960;8.372;2022-11-20T14:25:54;99730.00;;;8.80
20289;BMP180;10303;51.960;8.372;2022-11-20T14:28:30;99722.00;;;8.70
20289;BMP180;10303;51.960;8.372;2022-11-20T14:30:57;99714.00;;;8.60
20289;BMP180;10303;51.960;8.372;2022-11-20T14:33:26;99723.00;;;8.50
20289;BMP180;10303;51.960;8.372;2022-11-20T14:35:55;99727.00;;;8.40
20289;BMP180;10303;51.960;8.372;2022-11-20T14:38:27;99715.00;;;8.30
20289;BMP180;10303;51.960;8.372;2022-11-20T14:40:54;99726.00;;;8.30
20289;BMP180;10303;51.960;8.372;2022-11-20T14:43:32;99718.00;;;8.20
20289;BMP180;10303;51.960;8.372;2022-11-20T14:46:08;99722.00;;;8.10
20289;BMP180;10303;51.960;8.372;2022-11-20T14:48:45;99711.00;;;8.00
20289;BMP180;10303;51.960;8.372;2022-11-20T14:51:39;99708.00;;;7.90
20289;BMP180;10303;51.960;8.372;2022-11-20T14:54:20;99701.00;;;7.80
20289;BMP180;10303;51.960;8.372;2022-11-20T14:57:00;99699.00;;;7.70
20289;BMP180;10303;51.960;8.372;2022-11-20T14:59:33;99689.00;;;7.70
20289;BMP180;10303;51.960;8.372;2022-11-20T15:02:08;99694.00;;;7.60
20289;BMP180;10303;51.960;8.372;2022-11-20T15:04:57;99673.00;;;7.50
20289;BMP180;10303;51.960;8.372;2022-11-20T15:07:31;99663.00;;;7.50
20289;BMP180;10303;51.960;8.372;2022-11-20T15:10:09;99677.00;;;7.40
20289;BMP180;10303;51.960;8.372;2022-11-20T15:12:55;99683.00;;;7.40
20289;BMP180;10303;51.960;8.372;2022-11-20T15:17:56;99674.00;;;7.30
20289;BMP180;10303;51.960;8.372;2022-11-20T15:20:30;99657.00;;;7.20
20289;BMP180;10303;51.960;8.372;2022-11-20T15:22:57;99675.00;;;7.20
20289;BMP180;10303;51.960;8.372;2022-11-20T15:25:24;99649.00;;;7.10
20289;BMP180;10303;51.960;8.372;2022-11-20T15:27:56;99653.00;;;7.10
20289;BMP180;10303;51.960;8.372;2022-11-20T15:30:23;99647.00;;;7.10
20289;BMP180;10303;51.960;8.372;2022-11-20T15:32:50;99642.00;;;7.00
20289;BMP180;10303;51.960;8.372;2022-11-20T15:35:16;99645.00;;;7.00
20289;BMP180;10303;51.960;8.372;2022-11-20T15:37:42;99637.00;;;6.90
20289;BMP180;10303;51.960;8.372;2022-11-20T15:40:09;99654.00;;;6.90
20289;BMP180;10303;51.960;8.372;2022-11-20T15:42:35;99651.00;;;6.90
20289;BMP180;10303;51.960;8.372;2022-11-20T15:45:02;99648.00;;;6.90
20289;BMP180;10303;51.960;8.372;2022-11-20T15:47:35;99638.00;;;6.80
20289;BMP180;10303;51.960;8.372;2022-11-20T15:50:02;99652.00;;;6.80
20289;BMP180;10303;51.960;8.372;2022-11-20T15:52:28;99637.00;;;6.80
20289;BMP180;10303;51.960;8.372;2022-11-20T15:54:54;99638.00;;;6.80
20289;BMP180;10303;51.960;8.372;2022-11-20T15:57:20;99642.00;;;6.80
20289;BMP180;10303;51.960;8.372;2022-11-20T15:59:46;99642.00;;;6.70
20289;BMP180;10303;51.960;8.372;2022-11-20T16:02:15;99633.00;;;6.70
20289;BMP180;10303;51.960;8.372;2022-11-20T16:04:42;99637.00;;;6.60
20289;BMP180;10303;51.960;8.372;2022-11-20T16:07:08;99626.00;;;6.60
20289;BMP180;10303;51.960;8.372;2022-11-20T16:09:34;99598.00;;;6.60
20289;BMP180;10303;51.960;8.372;2022-11-20T16:12:00;99606.00;;;6.60
20289;BMP180;10303;51.960;8.372;2022-11-20T16:14:26;99603.00;;;6.50
20289;BMP180;10303;51.960;8.372;2022-11-20T16:17:12;99597.00;;;6.50
20289;BMP180;10303;51.960;8.372;2022-11-20T16:19:39;99589.00;;;6.50
20289;BMP180;10303;51.960;8.372;2022-11-20T16:22:05;99603.00;;;6.40
20289;BMP180;10303;51.960;8.372;2022-11-20T16:24:31;99595.00;;;6.40